createdAt,value
2019-03-10T00:02:57.561Z,8.20
2019-03-10T00:06:20.975Z,8.20
2019-03-10T00:09:44.404Z,8.10
2019-03-10T00:13:08.051Z,8.10
2019-03-10T00:16:31.729Z,8.00
2019-03-10T00:19:55.721Z,8.00
2019-03-10T00:23:19.634Z,8.00
2019-03-10T00:26:43.189Z,8.10
2019-03-10T00:30:07.106Z,8.10
2019-03-10T00:33:31.648Z,8.10
2019-03-10T00:36:54.852Z,8.10
2019-03-10T00:41:15.669Z,8.10
2019-03-10T00:45:46.725Z,8.10
2019-03-10T00:53:38.098Z,8.20
2019-03-10T01:01:28.864Z,8.40
2019-03-10T01:04:52.513Z,8.40
2019-03-10T01:08:15.725Z,8.40
2019-03-10T01:11:39.315Z,8.40
2019-03-10T01:15:02.731Z,8.50
2019-03-10T01:18:26.428Z,8.50
2019-03-10T01:21:50.172Z,8.60
2019-03-10T01:25:13.737Z,8.50
2019-03-10T01:28:36.966Z,8.50
2019-03-10T01:32:41.479Z,8.50
2019-03-10T01:36:13.621Z,8.50
2019-03-10T01:39:36.802Z,8.40
2019-03-10T01:43:00.076Z,8.40
2019-03-10T01:46:23.235Z,8.30
2019-03-10T01:49:46.366Z,8.30
2019-03-10T01:53:09.509Z,8.20
2019-03-10T01:56:32.649Z,8.20
2019-03-10T01:59:56.062Z,8.20
2019-03-10T02:03:19.404Z,8.30
2019-03-10T02:06:42.521Z,8.30
2019-03-10T02:10:06.949Z,8.40
2019-03-10T02:13:30.052Z,8.50
2019-03-10T02:16:53.605Z,8.50
2019-03-10T02:20:17.516Z,8.50
2019-03-10T02:23:40.752Z,8.40
2019-03-10T02:27:03.834Z,8.30
2019-03-10T02:30:27.120Z,8.20
2019-03-10T02:33:50.429Z,8.10
2019-03-10T02:37:13.555Z,8.00
2019-03-10T02:40:36.900Z,7.90
2019-03-10T02:44:01.034Z,7.80
2019-03-10T02:47:24.150Z,7.70
2019-03-10T02:50:47.218Z,7.50
2019-03-10T02:54:10.302Z,7.40
2019-03-10T02:57:33.549Z,7.30
2019-03-10T03:00:56.674Z,7.20
2019-03-10T03:04:20.207Z,7.20
2019-03-10T03:07:43.497Z,7.10
2019-03-10T03:11:06.651Z,7.10
2019-03-10T03:14:30.206Z,7.10
2019-03-10T03:17:53.490Z,7.10
2019-03-10T03:21:16.670Z,7.00
2019-03-10T03:24:39.756Z,7.00
2019-03-10T03:28:02.984Z,7.00
2019-03-10T03:31:29.137Z,7.00
2019-03-10T03:34:52.246Z,6.90
2019-03-10T03:38:17.957Z,6.90
2019-03-10T03:41:41.126Z,7.00
2019-03-10T03:45:04.754Z,6.90
2019-03-10T03:48:28.029Z,6.90
2019-03-10T03:51:51.267Z,6.80
2019-03-10T03:55:14.406Z,6.70
2019-03-10T03:58:37.535Z,6.60
2019-03-10T04:02:06.513Z,6.50
2019-03-10T04:05:29.594Z,6.40
2019-03-10T04:08:52.827Z,6.30
2019-03-10T04:12:16.088Z,6.30
2019-03-10T04:15:39.298Z,6.30
2019-03-10T04:19:02.458Z,6.30
2019-03-10T04:22:25.955Z,6.30
2019-03-10T04:25:49.043Z,6.30
2019-03-10T04:29:12.484Z,6.30
2019-03-10T04:32:35.547Z,6.30
2019-03-10T04:35:58.640Z,6.40
2019-03-10T04:39:21.731Z,6.40
2019-03-10T04:42:44.956Z,6.40
2019-03-10T04:46:08.061Z,6.40
2019-03-10T04:49:32.211Z,6.40
2019-03-10T04:52:55.291Z,6.40
2019-03-10T04:56:38.076Z,6.40
2019-03-10T05:00:01.313Z,6.50
2019-03-10T05:03:24.586Z,6.50
2019-03-10T05:06:47.671Z,6.50
2019-03-10T05:10:10.787Z,6.50
2019-03-10T05:13:33.974Z,6.50
2019-03-10T05:16:57.088Z,6.50
2019-03-10T05:20:20.205Z,6.50
2019-03-10T05:23:44.406Z,6.60
2019-03-10T05:27:07.554Z,6.60
2019-03-10T05:30:30.640Z,6.50
2019-03-10T05:33:54.049Z,6.50
2019-03-10T05:37:17.148Z,6.50
2019-03-10T05:40:40.791Z,6.50
2019-03-10T05:44:05.199Z,6.50
2019-03-10T05:47:28.351Z,6.50
2019-03-10T05:50:51.618Z,6.50
2019-03-10T05:54:14.693Z,6.40
2019-03-10T05:57:37.897Z,6.40
2019-03-10T06:01:00.974Z,6.40
2019-03-10T06:04:24.358Z,6.40
2019-03-10T06:07:47.476Z,6.30
2019-03-10T06:11:10.688Z,6.30
2019-03-10T06:14:34.066Z,6.30
2019-03-10T06:17:57.170Z,6.20
2019-03-10T06:21:20.265Z,6.20
2019-03-10T06:24:43.351Z,6.10
2019-03-10T06:28:06.742Z,6.00
2019-03-10T06:31:29.963Z,6.00
2019-03-10T06:34:53.182Z,6.00
2019-03-10T06:38:16.425Z,6.00
2019-03-10T06:41:39.535Z,6.10
2019-03-10T06:45:02.700Z,6.10
2019-03-10T06:48:26.826Z,6.10
2019-03-10T06:51:51.148Z,6.10
2019-03-10T06:55:14.506Z,6.20
2019-03-10T06:58:37.695Z,6.20
2019-03-10T07:02:00.789Z,6.20
2019-03-10T07:05:24.887Z,6.20
2019-03-10T07:08:48.385Z,6.20
2019-03-10T07:12:11.844Z,6.10
2019-03-10T07:15:35.199Z,6.10
2019-03-10T07:18:58.631Z,6.20
2019-03-10T07:22:22.060Z,6.20
2019-03-10T07:25:45.327Z,6.30
2019-03-10T07:29:18.201Z,6.30
2019-03-10T07:32:47.687Z,6.20
2019-03-10T07:36:39.161Z,6.20
2019-03-10T07:40:20.968Z,6.20
2019-03-10T07:44:15.695Z,6.20
2019-03-10T07:47:58.500Z,6.10
2019-03-10T07:51:38.348Z,6.20
2019-03-10T07:55:21.055Z,6.20
2019-03-10T07:59:18.762Z,6.30
2019-03-10T08:03:04.209Z,6.30
2019-03-10T08:06:56.251Z,6.30
2019-03-10T08:10:34.126Z,6.30
2019-03-10T08:14:22.878Z,6.30
2019-03-10T08:18:05.774Z,6.30
2019-03-10T08:21:47.073Z,6.30
2019-03-10T08:25:44.631Z,6.40
2019-03-10T08:29:39.264Z,6.40
2019-03-10T08:33:17.653Z,6.40
2019-03-10T08:36:58.998Z,6.70
2019-03-10T08:40:37.283Z,7.00
2019-03-10T08:44:29.498Z,7.10
2019-03-10T08:48:14.082Z,7.20
2019-03-10T08:51:50.452Z,7.20
2019-03-10T08:55:36.028Z,7.30
2019-03-10T08:59:17.463Z,7.30
2019-03-10T09:02:51.140Z,7.40
2019-03-10T09:06:38.962Z,7.50
2019-03-10T09:10:19.979Z,7.50
2019-03-10T09:13:56.373Z,7.50
2019-03-10T09:17:29.126Z,7.50
2019-03-10T09:21:10.371Z,7.50
2019-03-10T09:25:11.090Z,7.50
2019-03-10T09:28:47.225Z,7.70
2019-03-10T09:32:36.800Z,8.10
2019-03-10T09:36:19.217Z,8.70
2019-03-10T09:40:14.152Z,9.30
2019-03-10T09:43:55.207Z,9.40
2019-03-10T09:47:38.235Z,9.40
2019-03-10T09:51:27.092Z,9.40
2019-03-10T09:55:08.485Z,9.40
2019-03-10T09:58:46.546Z,9.30
2019-03-10T10:02:19.787Z,9.40
2019-03-10T10:05:51.608Z,9.70
2019-03-10T10:09:49.510Z,10.00
2019-03-10T10:13:34.962Z,10.40
2019-03-10T10:17:13.777Z,10.70
2019-03-10T10:21:02.447Z,10.80
2019-03-10T10:24:48.210Z,10.80
2019-03-10T10:28:30.915Z,10.70
2019-03-10T10:32:05.487Z,11.40
2019-03-10T10:35:58.596Z,13.30
2019-03-10T10:39:36.128Z,13.40
2019-03-10T10:43:20.085Z,13.30
2019-03-10T10:47:03.486Z,12.90
2019-03-10T10:50:55.252Z,13.40
2019-03-10T10:54:36.014Z,14.00
2019-03-10T10:58:09.378Z,15.00
2019-03-10T11:02:01.170Z,15.70
2019-03-10T11:05:43.885Z,15.10
2019-03-10T11:09:26.609Z,14.80
2019-03-10T11:13:07.622Z,14.10
2019-03-10T11:16:49.115Z,14.00
2019-03-10T11:20:30.715Z,13.40
2019-03-10T11:24:11.766Z,12.70
2019-03-10T11:27:49.885Z,11.50
2019-03-10T11:31:35.146Z,11.00
2019-03-10T11:35:35.948Z,11.00
2019-03-10T11:39:21.528Z,11.10
2019-03-10T11:42:58.810Z,10.90
2019-03-10T11:46:47.348Z,10.60
2019-03-10T11:50:36.163Z,10.40
2019-03-10T11:54:28.237Z,10.30
2019-03-10T11:58:22.896Z,10.30
2019-03-10T12:01:51.216Z,10.30
2019-03-10T12:05:34.304Z,10.40
2019-03-10T12:09:15.879Z,10.70
2019-03-10T12:12:39.161Z,10.40
2019-03-10T12:16:02.718Z,10.20
2019-03-10T12:19:26.139Z,10.00
2019-03-10T12:22:49.772Z,10.10
2019-03-10T12:26:12.950Z,10.20
2019-03-10T12:29:36.057Z,10.40
2019-03-10T12:32:59.512Z,10.40
2019-03-10T12:36:22.834Z,10.40
2019-03-10T12:39:46.466Z,10.40
2019-03-10T12:43:10.012Z,10.40
2019-03-10T12:46:33.226Z,10.30
2019-03-10T12:49:56.511Z,9.90
2019-03-10T12:53:19.617Z,9.80
2019-03-10T12:56:42.801Z,9.60
2019-03-10T13:00:07.332Z,9.50
2019-03-10T13:03:32.188Z,9.40
2019-03-10T13:06:55.303Z,9.40
2019-03-10T13:10:18.608Z,9.40
2019-03-10T13:13:41.985Z,9.90
2019-03-10T13:17:05.167Z,10.30
2019-03-10T13:20:28.825Z,10.00
2019-03-10T13:23:55.095Z,9.80
2019-03-10T13:27:19.456Z,9.70
2019-03-10T13:30:42.952Z,9.60
2019-03-10T13:34:09.823Z,9.40
2019-03-10T13:37:33.518Z,9.40
2019-03-10T13:40:56.919Z,9.60
2019-03-10T13:44:21.628Z,9.90
2019-03-10T13:47:45.894Z,9.90
2019-03-10T13:51:09.233Z,11.10
2019-03-10T13:54:32.804Z,10.30
2019-03-10T13:57:56.031Z,9.70
2019-03-10T14:01:19.351Z,9.40
2019-03-10T14:04:43.176Z,9.40
2019-03-10T14:08:08.423Z,9.70
2019-03-10T14:11:32.218Z,9.50
2019-03-10T14:14:55.665Z,9.30
2019-03-10T14:18:19.179Z,9.30
2019-03-10T14:21:44.676Z,9.30
2019-03-10T14:25:10.566Z,9.00
2019-03-10T14:28:34.262Z,9.00
2019-03-10T14:31:57.932Z,9.10
2019-03-10T14:35:21.737Z,9.00
2019-03-10T14:38:45.389Z,9.00
2019-03-10T14:42:08.782Z,9.00
2019-03-10T14:45:31.939Z,9.00
2019-03-10T14:48:55.206Z,8.90
2019-03-10T14:52:27.321Z,8.90
2019-03-10T14:55:50.508Z,8.80
2019-03-10T14:59:13.742Z,8.80
2019-03-10T15:02:36.999Z,8.80
2019-03-10T15:06:00.226Z,8.70
2019-03-10T15:09:24.502Z,8.60
2019-03-10T15:12:47.974Z,8.60
2019-03-10T15:16:11.155Z,8.60
2019-03-10T15:19:35.707Z,8.70
2019-03-10T15:22:59.049Z,8.80
2019-03-10T15:26:22.331Z,8.80
2019-03-10T15:29:45.478Z,8.80
2019-03-10T15:33:08.610Z,8.70
2019-03-10T15:36:32.795Z,8.70
2019-03-10T15:39:56.780Z,8.60
2019-03-10T15:43:20.220Z,8.40
2019-03-10T15:46:43.400Z,8.30
2019-03-10T15:50:12.084Z,8.20
2019-03-10T15:53:35.285Z,8.10
2019-03-10T15:56:58.403Z,8.10
2019-03-10T16:00:22.151Z,8.60
2019-03-10T16:03:45.690Z,8.90
2019-03-10T16:07:08.907Z,8.50
2019-03-10T16:10:32.184Z,8.00
2019-03-10T16:13:55.327Z,7.80
2019-03-10T16:17:18.594Z,7.50
2019-03-10T16:20:41.742Z,7.10
2019-03-10T16:24:05.319Z,6.80
2019-03-10T16:27:28.502Z,6.40
2019-03-10T16:30:52.013Z,6.30
2019-03-10T16:34:15.633Z,6.20
2019-03-10T16:37:38.782Z,6.20
2019-03-10T16:41:02.881Z,6.10
2019-03-10T16:44:25.988Z,6.20
2019-03-10T16:47:50.431Z,6.20
2019-03-10T16:51:13.709Z,6.10
2019-03-10T16:54:36.923Z,6.00
2019-03-10T16:58:00.292Z,5.90
2019-03-10T17:01:23.533Z,5.90
2019-03-10T17:04:46.658Z,6.00
2019-03-10T17:08:10.211Z,6.00
2019-03-10T17:11:33.681Z,6.00
2019-03-10T17:14:56.780Z,5.90
2019-03-10T17:18:19.879Z,5.90
2019-03-10T17:21:43.158Z,5.90
2019-03-10T17:25:06.524Z,5.80
2019-03-10T17:28:29.824Z,5.80
2019-03-10T17:31:53.352Z,5.70
2019-03-10T17:35:17.064Z,5.60
2019-03-10T17:38:40.231Z,5.60
2019-03-10T17:42:03.366Z,5.60
2019-03-10T17:45:27.584Z,5.50
2019-03-10T17:48:51.104Z,5.50
2019-03-10T17:52:14.874Z,5.50
2019-03-10T17:55:38.582Z,5.50
2019-03-10T17:59:01.917Z,5.50
2019-03-10T18:02:27.029Z,5.60
2019-03-10T18:05:50.385Z,5.60
2019-03-10T18:09:13.637Z,5.60
2019-03-10T18:12:36.908Z,5.70
2019-03-10T18:16:00.477Z,5.70
2019-03-10T18:19:24.012Z,5.70
2019-03-10T18:22:47.326Z,5.70
2019-03-10T18:26:10.567Z,5.80
2019-03-10T18:29:33.726Z,5.70
2019-03-10T18:32:57.080Z,5.60
2019-03-10T18:36:20.397Z,5.50
2019-03-10T18:39:43.987Z,5.40
2019-03-10T18:43:07.342Z,5.30
2019-03-10T18:46:30.563Z,5.30
2019-03-10T18:49:55.449Z,5.30
2019-03-10T18:53:18.889Z,5.20
2019-03-10T18:56:42.137Z,5.20
2019-03-10T19:00:07.183Z,5.30
2019-03-10T19:03:31.004Z,5.20
2019-03-10T19:06:54.250Z,5.20
2019-03-10T19:10:17.558Z,5.00
2019-03-10T19:13:41.173Z,4.90
2019-03-10T19:17:04.797Z,5.00
2019-03-10T19:20:27.941Z,5.00
2019-03-10T19:23:51.236Z,5.00
2019-03-10T19:27:15.441Z,5.00
2019-03-10T19:30:39.891Z,5.00
2019-03-10T19:34:03.892Z,5.10
2019-03-10T19:37:27.874Z,5.20
2019-03-10T19:40:54.220Z,5.30
2019-03-10T19:44:17.926Z,5.40
2019-03-10T19:47:41.310Z,5.30
2019-03-10T19:51:04.847Z,5.40
2019-03-10T19:54:28.172Z,5.50
2019-03-10T19:57:51.347Z,5.40
2019-03-10T20:01:15.205Z,5.00
2019-03-10T20:04:38.427Z,4.50
2019-03-10T20:08:03.251Z,3.60
2019-03-10T20:11:26.675Z,3.10
2019-03-10T20:14:50.365Z,2.90
2019-03-10T20:18:14.191Z,2.90
2019-03-10T20:21:37.522Z,2.80
2019-03-10T20:25:01.028Z,2.80
2019-03-10T20:28:24.464Z,2.80
2019-03-10T20:31:47.743Z,2.80
2019-03-10T20:35:11.261Z,2.70
2019-03-10T20:38:34.784Z,2.50
2019-03-10T20:42:05.196Z,2.30
2019-03-10T20:45:32.043Z,2.10
2019-03-10T20:48:55.400Z,2.00
2019-03-10T20:52:18.619Z,2.00
2019-03-10T20:55:42.529Z,2.00
2019-03-10T20:59:09.439Z,2.00
2019-03-10T21:02:33.044Z,2.00
2019-03-10T21:05:56.410Z,2.00
2019-03-10T21:09:19.611Z,2.00
2019-03-10T21:12:43.040Z,2.00
2019-03-10T21:16:06.596Z,2.00
2019-03-10T21:19:29.736Z,2.00
2019-03-10T21:22:53.157Z,2.00
2019-03-10T21:26:19.501Z,2.00
2019-03-10T21:29:44.070Z,2.10
2019-03-10T21:33:07.253Z,2.20
2019-03-10T21:36:30.547Z,2.30
2019-03-10T21:39:53.775Z,2.30
2019-03-10T21:43:16.921Z,2.50
2019-03-10T21:46:40.304Z,2.50
2019-03-10T21:50:04.661Z,2.60
2019-03-10T21:53:28.278Z,2.70
2019-03-10T21:56:52.872Z,2.70
2019-03-10T22:00:16.136Z,2.70
2019-03-10T22:03:39.338Z,2.80
2019-03-10T22:07:02.951Z,2.80
2019-03-10T22:10:27.993Z,2.80
2019-03-10T22:13:51.673Z,2.90
2019-03-10T22:17:14.876Z,3.00
2019-03-10T22:20:38.120Z,3.00
2019-03-10T22:24:03.192Z,3.00
2019-03-10T22:27:26.561Z,3.10
2019-03-10T22:30:49.671Z,3.10
2019-03-10T22:34:13.765Z,3.20
2019-03-10T22:37:37.583Z,3.30
2019-03-10T22:41:01.185Z,3.40
2019-03-10T22:44:26.478Z,3.40
2019-03-10T22:47:49.771Z,3.50
2019-03-10T22:51:12.900Z,3.60
2019-03-10T22:54:36.083Z,3.70
2019-03-10T22:57:59.534Z,3.70
2019-03-10T23:01:22.767Z,3.90
2019-03-10T23:04:46.284Z,4.00
2019-03-10T23:08:10.148Z,4.10
2019-03-10T23:11:33.418Z,4.20
2019-03-10T23:14:56.748Z,4.30
2019-03-10T23:18:20.059Z,4.40
2019-03-10T23:21:43.122Z,4.50
2019-03-10T23:25:06.722Z,4.40
2019-03-10T23:28:30.254Z,4.30
2019-03-10T23:31:53.618Z,4.20
2019-03-10T23:35:16.734Z,4.10
2019-03-10T23:38:39.854Z,4.00
2019-03-10T23:42:02.922Z,4.00
2019-03-10T23:45:26.179Z,3.90
2019-03-10T23:48:49.314Z,3.90
2019-03-10T23:52:12.406Z,4.00
2019-03-10T23:55:35.835Z,4.00
2019-03-10T23:58:58.978Z,4.00
